Parana — DHDT2 — position and weather

sailwx.info

Track history (hours):
 
Tides and Currents Weather Stations Pressure Air Temp Water Temp Dewpoint Dewpoint Depression Visibility Wind Speed Wind Dir Waves Ship Positions

Parana

Last reported at 2018-Apr-21 06:15 UTC. Time now 2018-Apr-22 16:19 UTC.
Position N 41°23' W 071°25'.

Length 183 m; draft 9.1 m.

Type: Cargo ship. MMSI: 218562000.

Date/timePositionNaut miles runAvg speedWind from/ knotsBaromVisibWave heightAir tempDewpointWater temp
2018-Apr-21 06:15N 41°23' W 071°25'415.0
2018-Apr-21 05:59N 41°27' W 071°23'612.1
2018-Apr-21 05:30N 41°32' W 071°20'815.0
2018-Apr-21 05:00N 41°40' W 071°19'611.4
2018-Apr-21 04:30N 41°45' W 071°22'3 4.2
2018-Apr-21 03:54N 41°47' W 071°23'0 0.0
2018-Apr-21 03:30N 41°47' W 071°23'0 0.0
2018-Apr-21 02:48N 41°47' W 071°23'0 0.0
2018-Apr-21 02:25N 41°47' W 071°23'0 0.0
2018-Apr-21 01:43N 41°47' W 071°23'0 0.0
2018-Apr-21 01:13N 41°47' W 071°23'0 0.0
2018-Apr-21 00:55N 41°47' W 071°23'0 0.0
2018-Apr-21 00:14N 41°47' W 071°23'0 0.0
2018-Apr-21 00:00N 41°47' W 071°23'0 0.0
2018-Apr-20 23:30N 41°47' W 071°23'0 0.0
2018-Apr-20 22:57N 41°47' W 071°23'0 0.0
2018-Apr-20 22:30N 41°47' W 071°23'0 0.0
2018-Apr-20 22:00N 41°47' W 071°23'0 0.0
2018-Apr-20 21:30N 41°47' W 071°23'0 0.0
2018-Apr-20 21:00N 41°47' W 071°23'0 0.0
2018-Apr-20 20:30N 41°47' W 071°23'0 0.0
2018-Apr-20 20:00N 41°47' W 071°23'0 0.0
2018-Apr-20 19:30N 41°47' W 071°23'0 0.0
2018-Apr-20 19:00N 41°47' W 071°23'0 0.0
2018-Apr-20 18:26N 41°47' W 071°23'0 0.0
2018-Apr-20 18:00N 41°47' W 071°23'0 0.0
2018-Apr-20 17:30N 41°47' W 071°23'0 0.0
2018-Apr-20 17:00N 41°47' W 071°23'0 0.0
2018-Apr-20 16:29N 41°47' W 071°23'0 0.0
2018-Apr-20 16:00N 41°47' W 071°23'0 0.0
2018-Apr-20 15:30N 41°47' W 071°23'0 0.0
2018-Apr-20 15:00N 41°47' W 071°23'0 0.0
2018-Apr-20 14:26N 41°47' W 071°23'0 0.0
2018-Apr-20 14:00N 41°47' W 071°23'0 0.0
2018-Apr-20 13:30N 41°47' W 071°23'0 0.0
2018-Apr-20 13:00N 41°47' W 071°23'0 0.0
2018-Apr-20 12:30N 41°47' W 071°23'0 0.0
2018-Apr-20 12:00N 41°47' W 071°23'0 0.0
2018-Apr-20 11:30N 41°47' W 071°23'0 0.0
2018-Apr-20 10:59N 41°47' W 071°23'0 0.0
2018-Apr-20 10:29N 41°47' W 071°23'0 0.0
2018-Apr-20 10:00N 41°47' W 071°23'0 0.0
2018-Apr-20 09:30N 41°47' W 071°23'0 0.1
2018-Apr-20 09:00N 41°47' W 071°23'2 3.4
2018-Apr-20 08:30N 41°46' W 071°23'5 9.9
2018-Apr-20 07:59N 41°41' W 071°19'713.4
2018-Apr-20 07:29N 41°35' W 071°19'813.9
2018-Apr-20 06:55N 41°27' W 071°23'119 8.7
2018-Apr-19 17:11N 40°25' W 073°37'210.0
2018-Apr-19 17:00N 40°25' W 073°39'5 9.9
2018-Apr-19 16:29N 40°26' W 073°46'4 8.4
2018-Apr-19 15:59N 40°28' W 073°51'5 9.7
2018-Apr-19 15:30N 40°30' W 073°56'613.1
2018-Apr-19 15:01N 40°35' W 074°02'611.5
2018-Apr-19 14:30N 40°40' W 074°04'0 0.8
2018-Apr-19 14:00N 40°40' W 074°05'0 0.0
2018-Apr-19 13:30N 40°40' W 074°05'0 0.0
2018-Apr-19 13:01N 40°40' W 074°05'0 0.0
2018-Apr-19 12:31N 40°40' W 074°05'0 0.0
2018-Apr-19 12:01N 40°40' W 074°05'0 0.0
2018-Apr-19 11:30N 40°40' W 074°05'0 0.0
2018-Apr-19 11:00N 40°40' W 074°05'0 0.0
2018-Apr-19 10:30N 40°40' W 074°05'0 0.0
2018-Apr-19 10:01N 40°40' W 074°05'0 0.0
2018-Apr-19 09:31N 40°40' W 074°05'0 0.0
2018-Apr-19 09:00N 40°40' W 074°05'0 0.0
2018-Apr-19 08:31N 40°40' W 074°05'0 0.0
2018-Apr-19 08:01N 40°40' W 074°05'0 0.0
2018-Apr-19 07:31N 40°40' W 074°05'0 0.0
2018-Apr-19 07:01N 40°40' W 074°05'0 0.0
2018-Apr-19 06:30N 40°40' W 074°05'0 0.0
2018-Apr-19 06:01N 40°40' W 074°05'0 0.0
2018-Apr-19 05:30N 40°40' W 074°05'0 0.0
2018-Apr-19 05:01N 40°40' W 074°05'0 0.0
2018-Apr-19 04:31N 40°40' W 074°05'0 0.0
2018-Apr-19 04:01N 40°40' W 074°05'0 0.0
2018-Apr-19 03:30N 40°40' W 074°05'0 0.0
2018-Apr-19 03:01N 40°40' W 074°05'0 0.0
2018-Apr-19 02:31N 40°40' W 074°05'0 0.0
2018-Apr-19 02:01N 40°40' W 074°05'0 0.0
2018-Apr-19 01:31N 40°40' W 074°05'0 0.0
2018-Apr-19 01:01N 40°40' W 074°05'0 0.0
2018-Apr-19 00:31N 40°40' W 074°05'0 0.0
2018-Apr-19 00:01N 40°40' W 074°05'0 0.0
2018-Apr-18 23:30N 40°40' W 074°05'0 0.0
2018-Apr-18 23:01N 40°40' W 074°05'0 0.0
2018-Apr-18 22:31N 40°40' W 074°05'0 0.0
2018-Apr-18 22:01N 40°40' W 074°05'0 0.0
2018-Apr-18 21:31N 40°40' W 074°05'0 0.0
2018-Apr-18 21:00N 40°40' W 074°05'0 0.0
2018-Apr-18 20:31N 40°40' W 074°05'0 0.0
2018-Apr-18 20:00N 40°40' W 074°05'0 0.0
2018-Apr-18 19:31N 40°40' W 074°05'0 0.0
2018-Apr-18 19:00N 40°40' W 074°05'0 0.0
2018-Apr-18 18:30N 40°40' W 074°05'0 0.0
2018-Apr-18 18:01N 40°40' W 074°05'0 0.0
2018-Apr-18 17:30N 40°40' W 074°05'0 0.0
2018-Apr-18 17:00N 40°40' W 074°05'0 0.0
2018-Apr-18 16:30N 40°40' W 074°05'0 0.0
2018-Apr-18 16:01N 40°40' W 074°05'0 0.0
2018-Apr-18 15:31N 40°40' W 074°05'0 0.0
2018-Apr-18 15:00N 40°40' W 074°05'0 0.0
2018-Apr-18 14:30N 40°40' W 074°05'0 0.0
2018-Apr-18 14:01N 40°40' W 074°05'0 0.0
2018-Apr-18 13:31N 40°40' W 074°05'0 0.0
2018-Apr-18 13:01N 40°40' W 074°05'0 0.0
2018-Apr-18 12:31N 40°40' W 074°05'0 0.0
2018-Apr-18 12:01N 40°40' W 074°05'0 0.0
2018-Apr-18 11:30N 40°40' W 074°05'0 0.0
2018-Apr-18 11:00N 40°40' W 074°05'0 0.0
2018-Apr-18 10:30N 40°40' W 074°05'0 0.0
2018-Apr-18 10:01N 40°40' W 074°05'0 0.0
2018-Apr-18 09:31N 40°40' W 074°05'0 0.0
2018-Apr-18 09:01N 40°40' W 074°05'0 0.7
2018-Apr-18 08:30N 40°40' W 074°05'2 4.0
2018-Apr-18 08:01N 40°39' W 074°03'4 7.5
2018-Apr-18 07:30N 40°35' W 074°02'611.5
2018-Apr-18 07:01N 40°31' W 073°58'510.5
2018-Apr-18 06:31N 40°28' W 073°52'4 8.1
2018-Apr-18 06:00N 40°26' W 073°48'4 8.3
2018-Apr-18 05:30N 40°22' W 073°47'510.0
2018-Apr-18 05:00N 40°17' W 073°46'2213.0
2018-Apr-18 03:18N 39°55' W 073°44'615.8
2018-Apr-18 02:54N 39°48' W 073°43'715.7
2018-Apr-18 02:26N 39°41' W 073°44'19415.1
2018-Apr-17 13:36N 36°49' W 075°38'110.0
2018-Apr-17 13:30N 36°49' W 075°40'5 9.0
2018-Apr-17 12:58N 36°48' W 075°46'4 9.5
2018-Apr-17 12:30N 36°51' W 075°50'5 9.5
2018-Apr-17 12:00N 36°54' W 075°55'5 9.5
2018-Apr-17 11:30N 36°57' W 075°59'815.1
2018-Apr-17 11:00N 37°03' W 076°05'5417.8
2018-Apr-17 07:59N 37°57' W 076°11'4316.4
2018-Apr-17 05:21N 38°38' W 076°25'617.6
2018-Apr-17 05:01N 38°44' W 076°26'918.3
2018-Apr-17 04:31N 38°53' W 076°24'917.8
2018-Apr-17 04:01N 39°02' W 076°23'815.0
2018-Apr-17 03:30N 39°09' W 076°25'611.4
2018-Apr-17 03:00N 39°13' W 076°31'2 2.7
2018-Apr-17 02:18N 39°14' W 076°32'0 0.0
2018-Apr-17 01:36N 39°14' W 076°32'0 0.0
2018-Apr-17 01:23N 39°14' W 076°32'0 0.0
2018-Apr-17 00:56N 39°14' W 076°32'0 0.0
2018-Apr-17 00:26N 39°14' W 076°32'0 0.0
2018-Apr-16 23:59N 39°14' W 076°32'0 0.0
2018-Apr-16 23:26N 39°14' W 076°32'0 0.0
2018-Apr-16 22:51N 39°14' W 076°32'0 0.0
2018-Apr-16 22:29N 39°14' W 076°32'0 0.0
2018-Apr-16 21:56N 39°14' W 076°32'0 0.0
2018-Apr-16 21:29N 39°14' W 076°32'0 0.0
2018-Apr-16 20:57N 39°14' W 076°32'0 0.0
2018-Apr-16 20:27N 39°14' W 076°32'0 0.0
2018-Apr-16 19:59N 39°14' W 076°32'0 0.0
2018-Apr-16 18:47N 39°14' W 076°32'0 0.0
2018-Apr-16 18:29N 39°14' W 076°32'0 0.0
2018-Apr-16 17:59N 39°14' W 076°32'0 0.0
2018-Apr-16 17:14N 39°14' W 076°32'0 0.0
2018-Apr-16 17:00N 39°14' W 076°32'0 0.0
2018-Apr-16 14:36N 39°14' W 076°32'0 0.0
2018-Apr-16 14:27N 39°14' W 076°32'0 0.0
2018-Apr-16 14:00N 39°14' W 076°32'0 0.0
2018-Apr-16 09:32N 39°14' W 076°32'0 0.0
2018-Apr-16 09:18N 39°14' W 076°32'0 0.0
2018-Apr-16 06:53N 39°14' W 076°32'0 0.0
2018-Apr-16 06:30N 39°14' W 076°32'0 0.0
2018-Apr-16 05:58N 39°14' W 076°32'0 0.7
2018-Apr-16 05:31N 39°14' W 076°32'1 2.9
2018-Apr-16 05:00N 39°15' W 076°34'2 3.3
2018-Apr-16 04:30N 39°16' W 076°36'0 0.0
2018-Apr-16 03:59N 39°16' W 076°36'0 0.0
2018-Apr-16 03:29N 39°16' W 076°36'0 0.0
2018-Apr-16 02:59N 39°16' W 076°36'0 0.0
2018-Apr-16 02:29N 39°16' W 076°36'0 0.0
2018-Apr-16 02:00N 39°16' W 076°36'0 0.0
2018-Apr-16 01:29N 39°16' W 076°36'0 0.0
2018-Apr-16 00:59N 39°16' W 076°36'0 0.0
2018-Apr-16 00:29N 39°16' W 076°36'0 0.0
2018-Apr-16 00:00N 39°16' W 076°36'0 0.0
2018-Apr-15 23:26N 39°16' W 076°36'0 0.0
2018-Apr-15 22:56N 39°16' W 076°36'0 0.0
2018-Apr-15 22:29N 39°16' W 076°36'0 0.0
2018-Apr-15 21:59N 39°16' W 076°36'0 0.0
2018-Apr-15 21:29N 39°16' W 076°36'0 0.0
2018-Apr-15 20:59N 39°16' W 076°36'0 0.0
2018-Apr-15 20:30N 39°16' W 076°36'1 1.6
2018-Apr-15 20:01N 39°15' W 076°35'3 6.7
2018-Apr-15 19:30N 39°13' W 076°32'611.5
2018-Apr-15 19:00N 39°10' W 076°25'714.4
2018-Apr-15 18:30N 39°03' W 076°23'815.0
2018-Apr-15 18:00N 38°55' W 076°23'917.1
2018-Apr-15 17:30N 38°47' W 076°25'3217.4
2018-Apr-15 15:41N 38°16' W 076°17'318.1
2018-Apr-15 15:29N 38°13' W 076°15'918.2
2018-Apr-15 14:58N 38°03' W 076°13'5517.2
2018-Apr-15 11:46N 37°08' W 076°09'618.8
2018-Apr-15 11:28N 37°04' W 076°05'817.6
2018-Apr-15 11:00N 36°57' W 075°59'5 9.3
2018-Apr-15 10:30N 36°55' W 075°54'  
Track history (hours):
 
Tides and Currents Weather Stations Pressure Air Temp Water Temp Dewpoint Dewpoint Depression Visibility Wind Speed Wind Dir Waves Ship Positions

Parana

Last reported at 2018-Apr-21 06:15 UTC. Time now 2018-Apr-22 16:19 UTC.
Position N 41°23' W 071°25'.

Length 183 m; draft 9.1 m.

Type: Cargo ship. MMSI: 218562000.

Date/timePositionNaut miles runAvg speedWind from/ knotsBaromVisibWave heightAir tempDewpointWater temp
2018-Apr-21 06:15N 41°23' W 071°25'415.0
2018-Apr-21 05:59N 41°27' W 071°23'612.1
2018-Apr-21 05:30N 41°32' W 071°20'815.0
2018-Apr-21 05:00N 41°40' W 071°19'611.4
2018-Apr-21 04:30N 41°45' W 071°22'3 4.2
2018-Apr-21 03:54N 41°47' W 071°23'0 0.0
2018-Apr-21 03:30N 41°47' W 071°23'0 0.0
2018-Apr-21 02:48N 41°47' W 071°23'0 0.0
2018-Apr-21 02:25N 41°47' W 071°23'0 0.0
2018-Apr-21 01:43N 41°47' W 071°23'0 0.0
2018-Apr-21 01:13N 41°47' W 071°23'0 0.0
2018-Apr-21 00:55N 41°47' W 071°23'0 0.0
2018-Apr-21 00:14N 41°47' W 071°23'0 0.0
2018-Apr-21 00:00N 41°47' W 071°23'0 0.0
2018-Apr-20 23:30N 41°47' W 071°23'0 0.0
2018-Apr-20 22:57N 41°47' W 071°23'0 0.0
2018-Apr-20 22:30N 41°47' W 071°23'0 0.0
2018-Apr-20 22:00N 41°47' W 071°23'0 0.0
2018-Apr-20 21:30N 41°47' W 071°23'0 0.0
2018-Apr-20 21:00N 41°47' W 071°23'0 0.0
2018-Apr-20 20:30N 41°47' W 071°23'0 0.0
2018-Apr-20 20:00N 41°47' W 071°23'0 0.0
2018-Apr-20 19:30N 41°47' W 071°23'0 0.0
2018-Apr-20 19:00N 41°47' W 071°23'0 0.0
2018-Apr-20 18:26N 41°47' W 071°23'0 0.0
2018-Apr-20 18:00N 41°47' W 071°23'0 0.0
2018-Apr-20 17:30N 41°47' W 071°23'0 0.0
2018-Apr-20 17:00N 41°47' W 071°23'0 0.0
2018-Apr-20 16:29N 41°47' W 071°23'0 0.0
2018-Apr-20 16:00N 41°47' W 071°23'0 0.0
2018-Apr-20 15:30N 41°47' W 071°23'0 0.0
2018-Apr-20 15:00N 41°47' W 071°23'0 0.0
2018-Apr-20 14:26N 41°47' W 071°23'0 0.0
2018-Apr-20 14:00N 41°47' W 071°23'0 0.0
2018-Apr-20 13:30N 41°47' W 071°23'0 0.0
2018-Apr-20 13:00N 41°47' W 071°23'0 0.0
2018-Apr-20 12:30N 41°47' W 071°23'0 0.0
2018-Apr-20 12:00N 41°47' W 071°23'0 0.0
2018-Apr-20 11:30N 41°47' W 071°23'0 0.0
2018-Apr-20 10:59N 41°47' W 071°23'0 0.0
2018-Apr-20 10:29N 41°47' W 071°23'0 0.0
2018-Apr-20 10:00N 41°47' W 071°23'0 0.0
2018-Apr-20 09:30N 41°47' W 071°23'0 0.1
2018-Apr-20 09:00N 41°47' W 071°23'2 3.4
2018-Apr-20 08:30N 41°46' W 071°23'5 9.9
2018-Apr-20 07:59N 41°41' W 071°19'713.4
2018-Apr-20 07:29N 41°35' W 071°19'813.9
2018-Apr-20 06:55N 41°27' W 071°23'119 8.7
2018-Apr-19 17:11N 40°25' W 073°37'210.0
2018-Apr-19 17:00N 40°25' W 073°39'5 9.9
2018-Apr-19 16:29N 40°26' W 073°46'4 8.4
2018-Apr-19 15:59N 40°28' W 073°51'5 9.7
2018-Apr-19 15:30N 40°30' W 073°56'613.1
2018-Apr-19 15:01N 40°35' W 074°02'611.5
2018-Apr-19 14:30N 40°40' W 074°04'0 0.8
2018-Apr-19 14:00N 40°40' W 074°05'0 0.0
2018-Apr-19 13:30N 40°40' W 074°05'0 0.0
2018-Apr-19 13:01N 40°40' W 074°05'0 0.0
2018-Apr-19 12:31N 40°40' W 074°05'0 0.0
2018-Apr-19 12:01N 40°40' W 074°05'0 0.0
2018-Apr-19 11:30N 40°40' W 074°05'0 0.0
2018-Apr-19 11:00N 40°40' W 074°05'0 0.0
2018-Apr-19 10:30N 40°40' W 074°05'0 0.0
2018-Apr-19 10:01N 40°40' W 074°05'0 0.0
2018-Apr-19 09:31N 40°40' W 074°05'0 0.0
2018-Apr-19 09:00N 40°40' W 074°05'0 0.0
2018-Apr-19 08:31N 40°40' W 074°05'0 0.0
2018-Apr-19 08:01N 40°40' W 074°05'0 0.0
2018-Apr-19 07:31N 40°40' W 074°05'0 0.0
2018-Apr-19 07:01N 40°40' W 074°05'0 0.0
2018-Apr-19 06:30N 40°40' W 074°05'0 0.0
2018-Apr-19 06:01N 40°40' W 074°05'0 0.0
2018-Apr-19 05:30N 40°40' W 074°05'0 0.0
2018-Apr-19 05:01N 40°40' W 074°05'0 0.0
2018-Apr-19 04:31N 40°40' W 074°05'0 0.0
2018-Apr-19 04:01N 40°40' W 074°05'0 0.0
2018-Apr-19 03:30N 40°40' W 074°05'0 0.0
2018-Apr-19 03:01N 40°40' W 074°05'0 0.0
2018-Apr-19 02:31N 40°40' W 074°05'0 0.0
2018-Apr-19 02:01N 40°40' W 074°05'0 0.0
2018-Apr-19 01:31N 40°40' W 074°05'0 0.0
2018-Apr-19 01:01N 40°40' W 074°05'0 0.0
2018-Apr-19 00:31N 40°40' W 074°05'0 0.0
2018-Apr-19 00:01N 40°40' W 074°05'0 0.0
2018-Apr-18 23:30N 40°40' W 074°05'0 0.0
2018-Apr-18 23:01N 40°40' W 074°05'0 0.0
2018-Apr-18 22:31N 40°40' W 074°05'0 0.0
2018-Apr-18 22:01N 40°40' W 074°05'0 0.0
2018-Apr-18 21:31N 40°40' W 074°05'0 0.0
2018-Apr-18 21:00N 40°40' W 074°05'0 0.0
2018-Apr-18 20:31N 40°40' W 074°05'0 0.0
2018-Apr-18 20:00N 40°40' W 074°05'0 0.0
2018-Apr-18 19:31N 40°40' W 074°05'0 0.0
2018-Apr-18 19:00N 40°40' W 074°05'0 0.0
2018-Apr-18 18:30N 40°40' W 074°05'0 0.0
2018-Apr-18 18:01N 40°40' W 074°05'0 0.0
2018-Apr-18 17:30N 40°40' W 074°05'0 0.0
2018-Apr-18 17:00N 40°40' W 074°05'0 0.0
2018-Apr-18 16:30N 40°40' W 074°05'0 0.0
2018-Apr-18 16:01N 40°40' W 074°05'0 0.0
2018-Apr-18 15:31N 40°40' W 074°05'0 0.0
2018-Apr-18 15:00N 40°40' W 074°05'0 0.0
2018-Apr-18 14:30N 40°40' W 074°05'0 0.0
2018-Apr-18 14:01N 40°40' W 074°05'0 0.0
2018-Apr-18 13:31N 40°40' W 074°05'0 0.0
2018-Apr-18 13:01N 40°40' W 074°05'0 0.0
2018-Apr-18 12:31N 40°40' W 074°05'0 0.0
2018-Apr-18 12:01N 40°40' W 074°05'0 0.0
2018-Apr-18 11:30N 40°40' W 074°05'0 0.0
2018-Apr-18 11:00N 40°40' W 074°05'0 0.0
2018-Apr-18 10:30N 40°40' W 074°05'0 0.0
2018-Apr-18 10:01N 40°40' W 074°05'0 0.0
2018-Apr-18 09:31N 40°40' W 074°05'0 0.0
2018-Apr-18 09:01N 40°40' W 074°05'0 0.7
2018-Apr-18 08:30N 40°40' W 074°05'2 4.0
2018-Apr-18 08:01N 40°39' W 074°03'4 7.5
2018-Apr-18 07:30N 40°35' W 074°02'611.5
2018-Apr-18 07:01N 40°31' W 073°58'510.5
2018-Apr-18 06:31N 40°28' W 073°52'4 8.1
2018-Apr-18 06:00N 40°26' W 073°48'4 8.3
2018-Apr-18 05:30N 40°22' W 073°47'510.0
2018-Apr-18 05:00N 40°17' W 073°46'2213.0
2018-Apr-18 03:18N 39°55' W 073°44'615.8
2018-Apr-18 02:54N 39°48' W 073°43'715.7
2018-Apr-18 02:26N 39°41' W 073°44'19415.1
2018-Apr-17 13:36N 36°49' W 075°38'110.0
2018-Apr-17 13:30N 36°49' W 075°40'5 9.0
2018-Apr-17 12:58N 36°48' W 075°46'4 9.5
2018-Apr-17 12:30N 36°51' W 075°50'5 9.5
2018-Apr-17 12:00N 36°54' W 075°55'5 9.5
2018-Apr-17 11:30N 36°57' W 075°59'815.1
2018-Apr-17 11:00N 37°03' W 076°05'5417.8
2018-Apr-17 07:59N 37°57' W 076°11'4316.4
2018-Apr-17 05:21N 38°38' W 076°25'617.6
2018-Apr-17 05:01N 38°44' W 076°26'918.3
2018-Apr-17 04:31N 38°53' W 076°24'917.8
2018-Apr-17 04:01N 39°02' W 076°23'815.0
2018-Apr-17 03:30N 39°09' W 076°25'611.4
2018-Apr-17 03:00N 39°13' W 076°31'2 2.7
2018-Apr-17 02:18N 39°14' W 076°32'0 0.0
2018-Apr-17 01:36N 39°14' W 076°32'0 0.0
2018-Apr-17 01:23N 39°14' W 076°32'0 0.0
2018-Apr-17 00:56N 39°14' W 076°32'0 0.0
2018-Apr-17 00:26N 39°14' W 076°32'0 0.0
2018-Apr-16 23:59N 39°14' W 076°32'0 0.0
2018-Apr-16 23:26N 39°14' W 076°32'0 0.0
2018-Apr-16 22:51N 39°14' W 076°32'0 0.0
2018-Apr-16 22:29N 39°14' W 076°32'0 0.0
2018-Apr-16 21:56N 39°14' W 076°32'0 0.0
2018-Apr-16 21:29N 39°14' W 076°32'0 0.0
2018-Apr-16 20:57N 39°14' W 076°32'0 0.0
2018-Apr-16 20:27N 39°14' W 076°32'0 0.0
2018-Apr-16 19:59N 39°14' W 076°32'0 0.0
2018-Apr-16 18:47N 39°14' W 076°32'0 0.0
2018-Apr-16 18:29N 39°14' W 076°32'0 0.0
2018-Apr-16 17:59N 39°14' W 076°32'0 0.0
2018-Apr-16 17:14N 39°14' W 076°32'0 0.0
2018-Apr-16 17:00N 39°14' W 076°32'0 0.0
2018-Apr-16 14:36N 39°14' W 076°32'0 0.0
2018-Apr-16 14:27N 39°14' W 076°32'0 0.0
2018-Apr-16 14:00N 39°14' W 076°32'0 0.0
2018-Apr-16 09:32N 39°14' W 076°32'0 0.0
2018-Apr-16 09:18N 39°14' W 076°32'0 0.0
2018-Apr-16 06:53N 39°14' W 076°32'0 0.0
2018-Apr-16 06:30N 39°14' W 076°32'0 0.0
2018-Apr-16 05:58N 39°14' W 076°32'0 0.7
2018-Apr-16 05:31N 39°14' W 076°32'1 2.9
2018-Apr-16 05:00N 39°15' W 076°34'2 3.3
2018-Apr-16 04:30N 39°16' W 076°36'0 0.0
2018-Apr-16 03:59N 39°16' W 076°36'0 0.0
2018-Apr-16 03:29N 39°16' W 076°36'0 0.0
2018-Apr-16 02:59N 39°16' W 076°36'0 0.0
2018-Apr-16 02:29N 39°16' W 076°36'0 0.0
2018-Apr-16 02:00N 39°16' W 076°36'0 0.0
2018-Apr-16 01:29N 39°16' W 076°36'0 0.0
2018-Apr-16 00:59N 39°16' W 076°36'0 0.0
2018-Apr-16 00:29N 39°16' W 076°36'0 0.0
2018-Apr-16 00:00N 39°16' W 076°36'0 0.0
2018-Apr-15 23:26N 39°16' W 076°36'0 0.0
2018-Apr-15 22:56N 39°16' W 076°36'0 0.0
2018-Apr-15 22:29N 39°16' W 076°36'0 0.0
2018-Apr-15 21:59N 39°16' W 076°36'0 0.0
2018-Apr-15 21:29N 39°16' W 076°36'0 0.0
2018-Apr-15 20:59N 39°16' W 076°36'0 0.0
2018-Apr-15 20:30N 39°16' W 076°36'1 1.6
2018-Apr-15 20:01N 39°15' W 076°35'3 6.7
2018-Apr-15 19:30N 39°13' W 076°32'611.5
2018-Apr-15 19:00N 39°10' W 076°25'714.4
2018-Apr-15 18:30N 39°03' W 076°23'815.0
2018-Apr-15 18:00N 38°55' W 076°23'917.1
2018-Apr-15 17:30N 38°47' W 076°25'3217.4
2018-Apr-15 15:41N 38°16' W 076°17'318.1
2018-Apr-15 15:29N 38°13' W 076°15'918.2
2018-Apr-15 14:58N 38°03' W 076°13'5517.2
2018-Apr-15 11:46N 37°08' W 076°09'618.8
2018-Apr-15 11:28N 37°04' W 076°05'817.6
2018-Apr-15 11:00N 36°57' W 075°59'5 9.3
2018-Apr-15 10:30N 36°55' W 075°54'  

Dump ship's entire track history